Time;durP1;ratioP1;P1;durP2;ratioP2;P2;SDS_P1;SDS_P2;PMS_P1;PMS_P2;Temp;Humidity;BMP_temperature;BMP_pressure;BME280_temperature;BME280_humidity;BME280_pressure;Samples;Min_cycle;Max_cycle;Signal;HPM_P1;HPM_P2
2022/11/02 05:35:50;;;;;;;7.43;1.20;;;16.80;73.30;;;;;;4810246;29;20119;-71
2022/11/02 05:38:16;;;;;;;8.35;1.77;;;16.80;73.10;;;;;;4810509;29;20058;-72
2022/11/02 05:40:41;;;;;;;9.80;1.88;;;16.80;72.80;;;;;;4811232;29;20055;-71
2022/11/02 05:43:08;;;;;;;6.47;1.35;;;16.80;72.50;;;;;;4809440;29;20055;-71
2022/11/02 05:45:35;;;;;;;10.02;1.42;;;16.80;72.30;;;;;;4808193;29;20125;-71
2022/11/02 05:48:02;;;;;;;6.00;1.40;;;16.90;72.20;;;;;;4806668;29;20089;-72
2022/11/02 05:50:28;;;;;;;8.60;1.65;;;16.90;71.90;;;;;;4807291;29;20157;-70
2022/11/02 05:52:54;;;;;;;9.95;2.20;;;16.90;71.70;;;;;;4809450;29;20133;-71
2022/11/02 05:55:20;;;;;;;6.97;1.17;;;16.80;71.50;;;;;;4809990;29;20134;-71
2022/11/02 05:57:51;;;;;;;5.03;1.40;;;16.90;71.50;;;;;;4810292;29;20069;-71
2022/11/02 06:00:17;;;;;;;4.70;1.27;;;16.90;71.50;;;;;;4810915;29;20047;-72
2022/11/02 06:02:43;;;;;;;6.03;1.55;;;16.80;71.30;;;;;;4810396;29;20065;-71
2022/11/02 06:05:08;;;;;;;11.82;1.48;;;16.60;70.60;;;;;;4810540;29;20057;-72
2022/11/02 06:07:34;;;;;;;9.07;1.50;;;16.50;71.40;;;;;;4809761;29;20417;-70
2022/11/02 06:10:01;;;;;;;7.80;1.40;;;16.60;72.00;;;;;;4810833;29;20499;-73
2022/11/02 06:12:27;;;;;;;8.25;1.55;;;16.50;72.30;;;;;;4809828;29;20074;-72
2022/11/02 06:14:52;;;;;;;10.57;1.42;;;16.50;72.50;;;;;;4810366;29;20058;-74
2022/11/02 06:17:18;;;;;;;11.13;1.80;;;16.60;72.90;;;;;;4810472;29;20055;-78
2022/11/02 06:19:44;;;;;;;8.23;1.63;;;16.60;73.10;;;;;;4810654;29;20050;-74
2022/11/02 06:22:09;;;;;;;14.57;1.98;;;16.60;73.20;;;;;;4810519;29;20051;-74
2022/11/02 06:24:35;;;;;;;11.63;1.48;;;16.60;73.30;;;;;;4809997;29;20054;-71
2022/11/02 06:27:01;;;;;;;9.88;1.50;;;16.70;73.40;;;;;;4809418;29;20050;-72
2022/11/02 06:29:26;;;;;;;10.05;1.63;;;16.70;73.40;;;;;;4810216;29;20050;-71
2022/11/02 06:31:53;;;;;;;15.82;2.00;;;16.70;73.30;;;;;;4810236;29;20107;-71
2022/11/02 06:34:18;;;;;;;9.07;1.60;;;16.70;73.30;;;;;;4816929;29;20093;-71
2022/11/02 06:36:44;;;;;;;5.20;0.93;;;16.70;73.20;;;;;;4827981;29;20155;-71
2022/11/02 06:39:10;;;;;;;9.85;1.30;;;16.40;70.30;;;;;;4827885;29;20046;-72
2022/11/02 06:41:35;;;;;;;6.40;1.13;;;16.10;69.70;;;;;;4827637;29;20057;-75
2022/11/02 06:44:01;;;;;;;10.00;2.03;;;16.00;71.00;;;;;;4828438;29;20119;-71
2022/11/02 06:46:27;;;;;;;10.75;1.67;;;16.00;72.10;;;;;;4827808;29;20050;-76
2022/11/02 06:48:52;;;;;;;7.00;1.20;;;16.00;73.70;;;;;;4828605;29;20048;-76
2022/11/02 06:51:18;;;;;;;11.88;1.58;;;16.10;73.40;;;;;;4828201;29;20054;-75
2022/11/02 06:53:44;;;;;;;12.32;1.88;;;16.20;72.50;;;;;;4826934;29;20050;-74
2022/11/02 06:56:11;;;;;;;12.55;2.50;;;16.30;72.10;;;;;;4827598;29;20367;-73
2022/11/02 06:58:36;;;;;;;14.80;1.92;;;16.30;71.50;;;;;;4827829;29;20369;-73
2022/11/02 07:01:08;;;;;;;13.93;1.63;;;16.40;71.30;;;;;;4827990;29;20050;-68
2022/11/02 07:03:35;;;;;;;17.65;2.05;;;16.40;71.40;;;;;;4826870;29;20054;-74
2022/11/02 07:06:01;;;;;;;12.77;1.95;;;16.40;71.90;;;;;;4828218;29;20054;-77
2022/11/02 07:08:28;;;;;;;17.95;2.03;;;16.50;72.10;;;;;;4828412;29;20146;-76
2022/11/02 07:10:54;;;;;;;13.65;1.88;;;16.50;72.10;;;;;;4827704;29;20111;-74
2022/11/02 07:13:20;;;;;;;11.75;1.80;;;16.40;72.10;;;;;;4827480;29;20099;-76
2022/11/02 07:15:46;;;;;;;10.20;2.00;;;16.40;72.30;;;;;;4827817;29;20436;-75
2022/11/02 07:18:12;;;;;;;13.68;1.85;;;16.30;72.60;;;;;;4827496;29;20046;-72
2022/11/02 07:20:38;;;;;;;18.70;2.88;;;16.30;72.80;;;;;;4827881;29;20085;-72
2022/11/02 07:23:05;;;;;;;10.65;1.88;;;16.30;73.00;;;;;;4827064;29;20062;-73
2022/11/02 07:25:32;;;;;;;13.98;1.75;;;16.30;73.20;;;;;;4827574;29;20474;-73
2022/11/02 07:28:01;;;;;;;15.23;1.88;;;16.40;73.40;;;;;;4827585;29;20061;-75
2022/11/02 07:30:29;;;;;;;11.18;2.20;;;16.40;73.60;;;;;;4827437;29;20053;-73
2022/11/02 07:32:54;;;;;;;9.20;1.50;;;16.40;73.60;;;;;;4826887;29;20116;-74
2022/11/02 07:35:20;;;;;;;12.18;1.30;;;16.50;73.70;;;;;;4826946;29;20054;-72
2022/11/02 07:38:00;;;;;;;7.72;1.02;;;16.50;74.00;;;;;;4827978;29;20051;-71
2022/11/02 07:40:28;;;;;;;14.35;1.73;;;16.60;75.00;;;;;;4826591;29;20058;-72
2022/11/02 07:42:54;;;;;;;16.23;1.60;;;16.50;75.10;;;;;;4826755;29;20437;-72
2022/11/02 07:45:21;;;;;;;11.48;1.85;;;16.60;75.20;;;;;;4826845;29;20046;-72
2022/11/02 07:47:48;;;;;;;10.75;1.30;;;16.60;75.70;;;;;;4826063;29;20452;-71
2022/11/02 07:50:16;;;;;;;15.98;1.50;;;16.60;75.90;;;;;;4825752;29;20089;-72
2022/11/02 07:52:53;;;;;;;11.30;1.42;;;16.70;76.00;;;;;;4826263;29;20050;-72
2022/11/02 07:55:21;;;;;;;9.20;1.38;;;16.70;75.90;;;;;;4827055;29;20054;-72
2022/11/02 07:58:04;;;;;;;16.42;1.70;;;16.70;75.80;;;;;;4826958;29;20042;-73
2022/11/02 08:00:33;;;;;;;11.60;1.63;;;16.70;75.60;;;;;;4826703;29;20058;-71
2022/11/02 08:03:00;;;;;;;10.50;1.42;;;16.70;75.10;;;;;;4826434;29;20376;-70
2022/11/02 08:05:27;;;;;;;14.77;2.20;;;16.80;74.50;;;;;;4826449;29;20467;-70
2022/11/02 08:08:00;;;;;;;6.80;1.85;;;16.70;74.00;;;;;;4827076;29;20062;-71
2022/11/02 08:10:27;;;;;;;7.07;1.10;;;16.70;74.00;;;;;;4826729;29;20060;-72
2022/11/02 08:12:54;;;;;;;14.38;1.90;;;16.70;74.00;;;;;;4826062;29;20042;-71
2022/11/02 08:15:19;;;;;;;8.60;1.58;;;16.70;74.20;;;;;;4810082;29;20129;-75
2022/11/02 08:17:45;;;;;;;5.60;1.17;;;16.70;74.20;;;;;;4826457;29;20125;-69
2022/11/02 08:20:11;;;;;;;11.75;1.50;;;16.80;74.20;;;;;;4826629;29;20054;-72
2022/11/02 08:22:38;;;;;;;22.35;2.20;;;16.80;74.40;;;;;;4826265;29;20046;-72
2022/11/02 08:25:05;;;;;;;9.35;0.77;;;16.80;75.00;;;;;;4826022;29;20110;-71
2022/11/02 08:27:30;;;;;;;7.95;1.25;;;16.80;75.10;;;;;;4826297;29;20214;-71
2022/11/02 08:29:56;;;;;;;14.07;1.63;;;16.80;75.10;;;;;;4826702;29;20499;-72
2022/11/02 08:32:22;;;;;;;11.48;1.50;;;16.80;74.80;;;;;;4826048;29;20484;-72
2022/11/02 08:34:47;;;;;;;9.07;1.42;;;16.80;74.10;;;;;;4824893;29;20134;-74
2022/11/02 08:37:13;;;;;;;10.43;1.55;;;16.80;73.40;;;;;;4826044;29;20112;-71
2022/11/02 08:39:39;;;;;;;7.60;1.48;;;16.80;72.60;;;;;;4826289;29;20047;-73
2022/11/02 08:42:05;;;;;;;11.25;1.40;;;16.80;72.00;;;;;;4826269;29;20133;-74
2022/11/02 08:44:30;;;;;;;7.95;1.50;;;16.80;70.80;;;;;;4826342;29;20061;-71
2022/11/02 08:46:56;;;;;;;5.97;1.33;;;16.80;70.00;;;;;;4826729;29;20379;-71
2022/11/02 08:49:22;;;;;;;8.65;1.98;;;16.70;69.10;;;;;;4826099;29;20050;-69
2022/11/02 08:51:47;;;;;;;9.20;1.88;;;16.70;68.80;;;;;;4826000;29;20137;-71
2022/11/02 08:54:13;;;;;;;13.30;2.03;;;16.70;68.60;;;;;;4826185;29;20054;-72
2022/11/02 08:56:39;;;;;;;7.55;1.35;;;16.60;68.80;;;;;;4826619;29;20058;-72
2022/11/02 08:59:05;;;;;;;4.80;1.17;;;16.60;69.10;;;;;;4825585;29;20101;-71
2022/11/02 09:01:31;;;;;;;7.72;1.95;;;16.50;68.80;;;;;;4826015;29;20054;-73
2022/11/02 09:03:56;;;;;;;7.78;1.77;;;16.40;69.30;;;;;;4826241;29;20133;-73
2022/11/02 09:06:22;;;;;;;5.65;1.20;;;16.50;69.90;;;;;;4826051;29;20125;-73
2022/11/02 09:08:48;;;;;;;9.65;1.75;;;16.50;69.60;;;;;;4825305;29;20119;-72
2022/11/02 09:11:13;;;;;;;9.32;1.35;;;16.50;69.30;;;;;;4823662;29;20077;-73
2022/11/02 09:13:39;;;;;;;7.93;1.65;;;16.50;69.10;;;;;;4825334;29;20096;-72
2022/11/02 09:16:05;;;;;;;5.97;1.30;;;16.50;68.80;;;;;;4825328;29;20050;-72
2022/11/02 09:18:31;;;;;;;10.05;1.50;;;16.50;68.50;;;;;;4825412;29;20057;-75
2022/11/02 09:21:01;;;;;;;7.90;1.48;;;16.50;69.00;;;;;;4824920;29;20050;-73
2022/11/02 09:23:27;;;;;;;11.02;2.03;;;16.60;68.40;;;;;;4826377;29;20057;-74
2022/11/02 09:25:52;;;;;;;6.68;1.52;;;16.60;68.50;;;;;;4825731;29;20432;-75
2022/11/02 09:28:18;;;;;;;12.13;2.03;;;16.60;68.50;;;;;;4825901;29;20046;-70
2022/11/02 09:30:44;;;;;;;9.35;1.80;;;16.60;68.70;;;;;;4825564;29;20054;-72
2022/11/02 09:33:11;;;;;;;7.03;1.80;;;16.60;68.90;;;;;;4825971;29;20054;-72
2022/11/02 09:35:39;;;;;;;8.48;1.55;;;16.60;69.00;;;;;;4825588;29;20134;-72
2022/11/02 09:38:06;;;;;;;12.13;1.90;;;16.60;68.80;;;;;;4825723;29;20146;-72
2022/11/02 09:40:43;;;;;;;5.88;1.88;;;16.70;69.00;;;;;;4825263;29;20061;-72
2022/11/02 09:43:12;;;;;;;6.22;1.27;;;16.60;69.20;;;;;;4825661;29;20062;-72
2022/11/02 09:46:29;;;;;;;10.38;1.40;;;16.70;69.40;;;;;;4825626;29;20058;-72
2022/11/02 09:49:09;;;;;;;6.65;1.17;;;16.70;69.50;;;;;;4769006;30;20064;-73
2022/11/02 09:51:43;;;;;;;7.68;1.85;;;16.70;69.70;;;;;;4769433;30;20059;-73
2022/11/02 09:54:17;;;;;;;6.03;1.80;;;16.70;69.90;;;;;;4809085;29;20066;-72
2022/11/02 09:56:43;;;;;;;7.93;1.27;;;16.70;69.90;;;;;;4825755;29;20057;-72
2022/11/02 09:59:17;;;;;;;5.28;1.50;;;16.70;70.60;;;;;;4825208;29;20464;-72
2022/11/02 10:02:01;;;;;;;6.90;1.52;;;16.70;70.10;;;;;;4815462;29;20161;-72
2022/11/02 10:04:53;;;;;;;7.00;1.60;;;16.70;70.10;;;;;;4828872;29;20050;-73
2022/11/02 10:07:34;;;;;;;6.88;1.48;;;16.70;70.20;;;;;;4828792;29;20062;-72
2022/11/02 10:10:10;;;;;;;8.10;1.23;;;16.70;70.30;;;;;;4828658;29;20051;-72
2022/11/02 10:12:51;;;;;;;4.75;1.17;;;16.70;70.30;;;;;;4828576;29;20046;-73
2022/11/02 10:15:39;;;;;;;8.45;1.50;;;16.70;70.40;;;;;;4828377;29;20046;-72
2022/11/02 10:18:12;;;;;;;12.65;1.67;;;16.70;70.20;;;;;;4821727;29;20090;-72
2022/11/02 10:20:44;;;;;;;9.70;1.50;;;16.70;70.60;;;;;;4828006;29;20054;-71
2022/11/02 10:23:23;;;;;;;11.07;2.15;;;16.70;70.20;;;;;;4835858;29;20468;-71
2022/11/02 10:25:50;;;;;;;12.18;2.10;;;16.70;70.60;;;;;;4830157;29;20050;-71
2022/11/02 10:28:24;;;;;;;9.02;1.60;;;16.70;71.10;;;;;;4827835;29;20061;-74
2022/11/02 10:30:52;;;;;;;10.23;1.77;;;16.70;71.80;;;;;;4828507;29;20138;-71
2022/11/02 10:33:25;;;;;;;10.73;1.98;;;16.70;72.50;;;;;;4828174;29;20129;-71
2022/11/02 10:36:14;;;;;;;12.20;1.95;;;16.70;72.80;;;;;;4828203;29;20090;-72
2022/11/02 10:38:49;;;;;;;14.00;1.83;;;16.80;72.80;;;;;;4827312;29;20276;-74
2022/11/02 10:41:20;;;;;;;13.10;1.92;;;16.80;71.90;;;;;;4828330;29;20056;-74
2022/11/02 10:43:55;;;;;;;8.68;1.95;;;16.90;71.50;;;;;;4827632;29;20127;-73
2022/11/02 10:46:48;;;;;;;10.85;2.20;;;16.90;71.00;;;;;;4827876;29;20046;-73
2022/11/02 10:49:37;;;;;;;11.25;1.40;;;16.90;70.30;;;;;;4827549;29;20061;-74
2022/11/02 10:52:03;;;;;;;15.25;1.88;;;16.90;69.70;;;;;;4828125;29;20135;-73
2022/11/02 10:54:30;;;;;;;14.50;3.60;;;17.00;68.60;;;;;;4828025;29;20046;-74
2022/11/02 10:56:57;;;;;;;16.05;4.40;;;17.00;68.10;;;;;;4827646;29;20054;-73
2022/11/02 10:59:22;;;;;;;18.40;6.28;;;17.00;68.20;;;;;;4830601;29;20054;-73
2022/11/02 11:02:03;;;;;;;18.60;4.78;;;17.00;68.60;;;;;;4827603;29;20487;-73
2022/11/02 11:04:30;;;;;;;20.70;8.65;;;16.90;69.00;;;;;;4827902;29;20478;-73
2022/11/02 11:07:02;;;;;;;16.77;8.65;;;16.90;69.60;;;;;;4827743;29;20357;-72
2022/11/02 11:09:35;;;;;;;20.95;10.02;;;16.90;70.10;;;;;;4827891;29;20173;-73
2022/11/02 11:12:12;;;;;;;25.38;12.75;;;16.90;70.60;;;;;;4827583;29;20050;-77
2022/11/02 11:14:56;;;;;;;22.35;10.50;;;16.90;71.00;;;;;;4827354;29;20054;-77
2022/11/02 11:17:30;;;;;;;18.67;9.55;;;17.00;72.50;;;;;;4827531;29;20080;-76
2022/11/02 11:19:57;;;;;;;22.08;9.10;;;17.00;72.00;;;;;;4828340;29;20348;-72
2022/11/02 11:22:37;;;;;;;17.83;8.57;;;17.00;72.00;;;;;;4827504;29;20065;-73
2022/11/02 11:25:26;;;;;;;19.23;7.82;;;17.00;72.20;;;;;;4827328;29;20082;-73
2022/11/02 11:27:56;;;;;;;12.85;6.40;;;17.00;72.30;;;;;;4826788;29;20069;-73
2022/11/02 11:30:29;;;;;;;18.58;7.85;;;17.00;72.20;;;;;;4827435;29;20050;-72
2022/11/02 11:32:56;;;;;;;17.63;5.93;;;17.00;72.20;;;;;;4826909;29;20065;-73
2022/11/02 11:35:27;;;;;;;16.63;6.13;;;17.00;72.10;;;;;;4826681;29;20061;-74
2022/11/02 11:37:56;;;;;;;13.80;5.93;;;17.00;72.10;;;;;;4826896;29;20054;-74
2022/11/02 11:40:23;;;;;;;18.38;5.88;;;17.00;72.20;;;;;;4827118;29;20085;-74
2022/11/02 11:42:53;;;;;;;13.65;5.50;;;16.90;72.20;;;;;;4827268;29;20375;-73
2022/11/02 11:45:25;;;;;;;15.63;5.75;;;17.00;72.30;;;;;;4811876;29;20057;-74
2022/11/02 11:47:54;;;;;;;14.82;5.93;;;17.00;72.30;;;;;;4826990;29;20054;-75
2022/11/02 11:50:21;;;;;;;13.23;5.40;;;17.00;72.30;;;;;;4826789;29;20047;-75
2022/11/02 11:53:05;;;;;;;16.25;5.13;;;17.00;72.30;;;;;;4827207;29;20057;-74
2022/11/02 11:55:31;;;;;;;14.38;4.53;;;17.00;72.40;;;;;;4827374;29;20379;-75
2022/11/02 11:58:05;;;;;;;17.58;4.78;;;17.00;72.40;;;;;;4826393;29;20055;-74
2022/11/02 12:00:31;;;;;;;14.13;4.32;;;17.00;72.40;;;;;;4826484;29;20047;-75
2022/11/02 12:03:09;;;;;;;9.65;4.05;;;17.00;72.50;;;;;;4826672;29;20456;-76
2022/11/02 12:06:03;;;;;;;10.52;4.00;;;16.90;72.50;;;;;;4829139;29;20050;-74
2022/11/02 12:08:47;;;;;;;11.35;3.55;;;16.90;72.40;;;;;;4817994;29;20431;-74
2022/11/02 12:11:31;;;;;;;11.93;3.80;;;16.90;72.50;;;;;;4826826;29;20258;-74
2022/11/02 12:14:23;;;;;;;12.55;3.75;;;16.90;72.60;;;;;;4832841;29;20038;-76
2022/11/02 12:17:20;;;;;;;16.42;3.78;;;16.90;72.60;;;;;;4836511;29;20061;-75
2022/11/02 12:20:18;;;;;;;14.82;3.53;;;16.90;72.50;;;;;;4810718;29;20129;-76
2022/11/02 12:23:00;;;;;;;11.35;2.80;;;16.90;71.30;;;;;;4792007;29;20066;-73
2022/11/02 12:26:06;;;;;;;11.35;2.38;;;17.00;69.30;;;;;;4826249;29;20058;-73
2022/11/02 12:28:50;;;;;;;8.48;2.08;;;17.00;69.30;;;;;;4766674;29;20073;-73
2022/11/02 12:31:38;;;;;;;15.68;2.42;;;16.90;68.90;;;;;;4826589;29;20046;-73
2022/11/02 12:34:41;;;;;;;11.02;1.90;;;17.00;69.10;;;;;;4825849;29;20070;-73
2022/11/02 12:37:30;;;;;;;8.43;1.95;;;17.00;69.10;;;;;;4825242;29;20057;-73
2022/11/02 12:40:12;;;;;;;8.77;1.80;;;17.00;69.20;;;;;;4826551;29;20370;-73
2022/11/02 12:43:09;;;;;;;11.43;2.42;;;17.00;69.30;;;;;;4826291;29;20456;-73
2022/11/02 12:45:43;;;;;;;7.88;1.67;;;17.00;69.50;;;;;;4795766;29;20050;-74
2022/11/02 12:48:20;;;;;;;6.70;1.75;;;17.00;70.00;;;;;;4826808;29;20122;-74
2022/11/02 12:50:58;;;;;;;8.23;1.95;;;17.00;69.50;;;;;;4825497;29;20054;-75
2022/11/02 12:53:51;;;;;;;6.05;1.85;;;17.00;69.30;;;;;;4826460;29;20065;-72
2022/11/02 12:56:28;;;;;;;6.40;1.65;;;17.10;68.80;;;;;;4825414;29;20058;-74
2022/11/02 12:58:55;;;;;;;13.43;2.13;;;17.00;68.40;;;;;;4826077;29;20054;-74
2022/11/02 13:01:29;;;;;;;13.40;1.63;;;17.00;68.00;;;;;;4826126;29;20061;-74
2022/11/02 13:04:03;;;;;;;8.48;1.80;;;17.00;67.80;;;;;;4825519;29;20125;-73
2022/11/02 13:06:45;;;;;;;7.68;1.20;;;17.00;67.80;;;;;;4825901;29;20429;-73
2022/11/02 13:09:21;;;;;;;8.85;2.70;;;17.00;68.00;;;;;;4826038;29;20054;-73
2022/11/02 13:11:55;;;;;;;5.90;1.55;;;17.00;68.10;;;;;;4826093;29;20065;-73
2022/11/02 13:14:22;;;;;;;;;;;17.00;68.30;;;;;;4826069;29;20046;-73
2022/11/02 13:16:54;;;;;;;8.90;2.13;;;17.00;68.70;;;;;;4825777;29;19924;-73
2022/11/02 13:19:33;;;;;;;6.85;1.30;;;17.00;68.70;;;;;;4826024;29;20357;-73
2022/11/02 13:22:01;;;;;;;5.40;1.65;;;17.00;68.80;;;;;;4825953;29;20055;-73
2022/11/02 13:24:33;;;;;;;8.75;1.48;;;17.00;69.00;;;;;;4825738;29;20046;-73
2022/11/02 13:27:03;;;;;;;4.55;1.20;;;17.00;69.20;;;;;;4825972;29;20058;-73
2022/11/02 13:29:43;;;;;;;7.60;1.63;;;17.00;69.20;;;;;;4825855;29;20446;-74
2022/11/02 13:32:23;;;;;;;6.70;1.67;;;17.00;69.30;;;;;;4826354;29;20054;-73
2022/11/02 13:34:51;;;;;;;6.53;1.20;;;17.00;69.40;;;;;;4825344;29;20073;-73
2022/11/02 13:37:41;;;;;;;6.07;1.30;;;17.00;69.50;;;;;;4828247;29;20133;-74
2022/11/02 13:40:24;;;;;;;5.07;1.30;;;17.00;69.60;;;;;;4828908;29;20464;-73
2022/11/02 13:43:11;;;;;;;6.22;1.33;;;17.00;69.70;;;;;;4828956;29;20129;-73
2022/11/02 13:45:59;;;;;;;7.47;1.15;;;17.00;70.50;;;;;;4828956;29;20054;-73
2022/11/02 13:48:47;;;;;;;4.50;1.05;;;17.00;70.00;;;;;;4829240;29;20111;-73
2022/11/02 13:51:37;;;;;;;6.82;1.35;;;17.00;70.00;;;;;;4828929;29;20042;-73
2022/11/02 13:54:20;;;;;;;6.57;1.55;;;17.00;70.10;;;;;;4835686;29;20125;-72
2022/11/02 13:56:51;;;;;;;7.20;1.65;;;17.00;69.90;;;;;;4828663;29;20129;-73
2022/11/02 13:59:29;;;;;;;10.65;2.05;;;16.90;69.90;;;;;;4828777;29;20133;-74
2022/11/02 14:01:58;;;;;;;11.23;2.00;;;16.90;70.20;;;;;;4828633;29;20056;-73
2022/11/02 14:04:24;;;;;;;7.78;1.33;;;16.90;70.50;;;;;;4828983;29;20349;-73
2022/11/02 14:06:58;;;;;;;9.80;1.30;;;16.80;70.80;;;;;;4829454;29;20046;-73
2022/11/02 14:09:37;;;;;;;10.68;1.50;;;16.80;70.90;;;;;;4829248;29;20089;-74
2022/11/02 14:12:12;;;;;;;12.30;1.85;;;16.80;71.30;;;;;;4828604;29;20088;-74
2022/11/02 14:14:38;;;;;;;13.63;1.90;;;16.80;71.60;;;;;;4827978;29;20090;-74
2022/11/02 14:17:18;;;;;;;9.90;1.70;;;16.80;71.80;;;;;;4828766;29;20082;-72
2022/11/02 14:19:47;;;;;;;8.90;1.60;;;16.80;72.10;;;;;;4828758;29;20054;-74
2022/11/02 14:22:17;;;;;;;10.98;1.35;;;16.70;72.20;;;;;;4828477;29;20412;-76
2022/11/02 14:24:48;;;;;;;11.40;1.50;;;16.70;72.30;;;;;;4828529;29;20054;-74
2022/11/02 14:27:18;;;;;;;13.00;1.63;;;16.70;72.50;;;;;;4828405;29;20073;-76
2022/11/02 14:29:43;;;;;;;20.70;2.08;;;16.60;72.50;;;;;;4828762;29;20062;-72
2022/11/02 14:32:36;;;;;;;14.38;2.28;;;16.70;72.80;;;;;;4828102;29;20074;-76
2022/11/02 14:35:32;;;;;;;10.65;1.52;;;16.70;72.90;;;;;;4828166;29;20058;-76
2022/11/02 14:38:04;;;;;;;14.75;1.40;;;16.60;73.00;;;;;;4828409;29;20133;-77
2022/11/02 14:40:45;;;;;;;8.75;1.00;;;16.60;73.80;;;;;;4812419;29;20056;-76
2022/11/02 14:43:38;;;;;;;8.63;1.98;;;16.60;73.30;;;;;;4812263;29;20119;-73
2022/11/02 14:46:14;;;;;;;13.20;1.50;;;16.50;73.30;;;;;;4828165;29;20058;-75
2022/11/02 14:48:47;;;;;;;14.98;1.13;;;16.60;73.50;;;;;;4825693;29;20435;-77
2022/11/02 14:51:24;;;;;;;21.95;2.15;;;16.50;73.60;;;;;;4825311;29;20050;-76
2022/11/02 14:53:57;;;;;;;18.10;2.67;;;16.60;74.00;;;;;;4827920;29;20065;-73
2022/11/02 14:56:24;;;;;;;18.80;3.00;;;16.60;74.10;;;;;;4827793;29;20049;-74
2022/11/02 14:58:56;;;;;;;23.02;3.15;;;16.70;73.80;;;;;;4811724;29;20057;-79
2022/11/02 15:01:22;;;;;;;22.73;2.17;;;16.80;73.50;;;;;;4827769;29;20066;-77
2022/11/02 15:03:49;;;;;;;13.60;2.30;;;16.80;73.10;;;;;;4827315;29;20125;-74
2022/11/02 15:06:27;;;;;;;11.70;1.40;;;16.80;72.60;;;;;;4827530;29;20042;-74
2022/11/02 15:08:54;;;;;;;12.57;2.95;;;16.90;72.60;;;;;;4827690;29;20046;-75
2022/11/02 15:11:49;;;;;;;11.50;2.47;;;16.90;72.70;;;;;;4827886;29;20129;-74
2022/11/02 15:14:35;;;;;;;15.63;2.15;;;16.90;72.40;;;;;;4809263;29;20054;-72
2022/11/02 15:17:15;;;;;;;13.45;2.60;;;16.90;71.90;;;;;;4798343;29;20461;-72
2022/11/02 15:19:47;;;;;;;12.60;2.20;;;16.90;71.50;;;;;;4808694;29;20385;-75
2022/11/02 15:22:32;;;;;;;22.15;3.00;;;16.90;71.00;;;;;;4814563;29;20507;-75
2022/11/02 15:25:09;;;;;;;16.02;2.80;;;16.90;70.80;;;;;;4827462;29;20054;-71
2022/11/02 15:27:36;;;;;;;16.48;2.80;;;16.90;70.50;;;;;;4826916;29;20081;-72
2022/11/02 15:30:05;;;;;;;14.98;3.00;;;16.90;70.50;;;;;;4827212;29;20109;-72
2022/11/02 15:32:39;;;;;;;18.70;3.38;;;16.90;68.10;;;;;;4826688;29;20057;-75
2022/11/02 15:35:13;;;;;;;12.98;2.53;;;16.90;67.20;;;;;;4827018;29;20068;-72
2022/11/02 15:37:38;;;;;;;8.73;2.20;;;16.90;66.50;;;;;;4812224;29;20051;-73
2022/11/02 15:40:17;;;;;;;15.93;2.63;;;16.70;66.40;;;;;;4826235;29;20054;-74
2022/11/02 15:43:20;;;;;;;13.00;2.50;;;16.70;66.70;;;;;;4827119;29;20125;-73
2022/11/02 15:46:08;;;;;;;12.32;2.42;;;16.60;67.90;;;;;;4827081;29;20046;-74
2022/11/02 15:48:55;;;;;;;12.90;2.85;;;16.70;68.20;;;;;;4827241;29;20097;-73
2022/11/02 15:51:37;;;;;;;16.33;3.03;;;16.70;68.00;;;;;;4827007;29;20081;-75
2022/11/02 15:54:12;;;;;;;23.10;2.90;;;16.70;68.00;;;;;;4827088;29;20054;-74
2022/11/02 15:56:56;;;;;;;22.85;3.55;;;16.70;68.50;;;;;;4827097;29;20047;-74
2022/11/02 15:59:27;;;;;;;18.13;3.45;;;16.70;69.10;;;;;;4826937;29;20141;-75
2022/11/02 16:02:18;;;;;;;22.17;3.05;;;16.80;69.50;;;;;;4826297;29;20050;-74
2022/11/02 16:04:51;;;;;;;12.82;3.25;;;16.80;70.20;;;;;;4826823;29;20464;-74
2022/11/02 16:07:17;;;;;;;20.67;2.65;;;16.80;70.40;;;;;;4826629;29;20054;-74
2022/11/02 16:09:47;;;;;;;17.98;3.50;;;16.80;70.70;;;;;;4826885;29;20601;-75
2022/11/02 16:12:18;;;;;;;21.65;3.53;;;16.80;71.00;;;;;;4825522;29;20050;-75
2022/11/02 16:14:56;;;;;;;13.63;2.47;;;16.80;71.30;;;;;;4826459;29;20467;-74
2022/11/02 16:17:24;;;;;;;12.32;2.55;;;16.80;72.40;;;;;;4826821;29;20050;-74
2022/11/02 16:19:52;;;;;;;16.73;2.75;;;16.90;72.10;;;;;;4826902;29;20050;-75
2022/11/02 16:22:23;;;;;;;12.70;2.20;;;16.90;72.00;;;;;;4826547;29;20046;-75
2022/11/02 16:24:51;;;;;;;13.38;2.70;;;16.90;71.40;;;;;;4826903;29;20057;-75
2022/11/02 16:27:17;;;;;;;14.55;2.45;;;16.90;71.10;;;;;;4826855;29;20054;-75
2022/11/02 16:29:42;;;;;;;16.48;2.60;;;16.90;71.20;;;;;;4826503;29;20356;-74
2022/11/02 16:32:10;;;;;;;12.88;2.70;;;16.90;71.30;;;;;;4826207;29;20376;-75
2022/11/02 16:34:36;;;;;;;16.98;2.00;;;16.90;71.50;;;;;;4826410;29;20073;-75
2022/11/02 16:37:03;;;;;;;13.77;2.10;;;16.90;71.60;;;;;;4826534;29;20111;-74
2022/11/02 16:39:36;;;;;;;13.25;2.72;;;16.90;71.90;;;;;;4826606;29;20429;-74
2022/11/02 16:42:08;;;;;;;16.63;2.50;;;16.90;72.20;;;;;;4826112;29;20052;-74
2022/11/02 16:44:34;;;;;;;16.73;2.47;;;16.90;72.00;;;;;;4825678;29;20046;-71
2022/11/02 16:47:06;;;;;;;17.27;2.70;;;16.90;71.80;;;;;;4826213;29;20053;-74
2022/11/02 16:49:33;;;;;;;15.68;1.95;;;16.90;71.30;;;;;;4827187;29;20351;-75
2022/11/02 16:52:24;;;;;;;12.20;2.75;;;17.00;70.40;;;;;;4826073;29;20126;-72
2022/11/02 16:54:50;;;;;;;10.43;1.65;;;17.00;69.30;;;;;;4823765;29;20130;-74
2022/11/02 16:57:22;;;;;;;18.92;3.22;;;16.90;68.70;;;;;;4824464;29;20050;-75
2022/11/02 16:59:58;;;;;;;15.23;2.30;;;16.90;68.40;;;;;;4809681;29;20129;-74
2022/11/02 17:02:30;;;;;;;14.15;2.33;;;16.90;69.00;;;;;;4825195;29;20087;-74
2022/11/02 17:04:57;;;;;;;14.88;3.13;;;16.90;69.80;;;;;;4825918;29;20072;-74
2022/11/02 17:07:29;;;;;;;15.25;1.98;;;16.90;70.00;;;;;;4825977;29;20058;-76
2022/11/02 17:09:57;;;;;;;25.02;2.85;;;16.80;70.20;;;;;;4826762;29;20349;-75
2022/11/02 17:12:31;;;;;;;13.70;2.22;;;16.80;70.40;;;;;;4814135;29;20065;-75
2022/11/02 17:14:57;;;;;;;16.20;2.40;;;16.80;70.50;;;;;;4831995;29;20129;-73
2022/11/02 17:17:23;;;;;;;9.57;2.38;;;16.80;70.60;;;;;;4831492;29;20046;-76
2022/11/02 17:20:08;;;;;;;22.55;2.72;;;16.80;70.80;;;;;;4831917;29;20057;-76
2022/11/02 17:22:49;;;;;;;12.70;2.30;;;16.80;70.80;;;;;;4831674;29;20464;-76
2022/11/02 17:25:22;;;;;;;12.95;1.70;;;16.80;71.00;;;;;;4832176;29;20054;-74
2022/11/02 17:27:49;;;;;;;8.32;1.73;;;16.80;70.90;;;;;;4831927;29;20046;-76
2022/11/02 17:30:33;;;;;;;9.77;1.92;;;16.80;70.90;;;;;;4831898;29;20114;-74
2022/11/02 17:33:11;;;;;;;8.25;1.52;;;16.80;70.90;;;;;;4831327;29;20082;-74
2022/11/02 17:35:44;;;;;;;10.25;1.33;;;16.80;70.80;;;;;;4830956;29;20054;-74
2022/11/02 17:38:11;;;;;;;12.23;1.80;;;16.80;70.40;;;;;;4831587;29;20467;-74
2022/11/02 17:40:37;;;;;;;10.98;1.75;;;16.70;70.60;;;;;;4831982;29;20038;-75
2022/11/02 17:43:03;;;;;;;9.10;1.45;;;16.70;70.60;;;;;;4831602;29;20111;-76
2022/11/02 17:45:32;;;;;;;12.02;2.42;;;16.70;70.60;;;;;;4831971;29;20133;-75
2022/11/02 17:48:00;;;;;;;10.43;2.15;;;16.70;70.80;;;;;;4832443;29;20062;-75
2022/11/02 17:50:27;;;;;;;11.10;2.08;;;16.70;71.00;;;;;;4831866;29;20057;-74
2022/11/02 17:52:54;;;;;;;7.40;1.60;;;16.70;71.10;;;;;;4831038;29;20463;-74
2022/11/02 17:55:27;;;;;;;8.98;1.80;;;16.70;71.10;;;;;;4831588;29;20053;-76
2022/11/02 17:57:57;;;;;;;13.35;1.73;;;16.70;71.10;;;;;;4832023;29;20077;-73
2022/11/02 18:00:24;;;;;;;10.20;1.77;;;16.70;71.00;;;;;;4831860;29;20058;-75
2022/11/02 18:02:54;;;;;;;10.25;2.63;;;16.70;70.70;;;;;;4830351;29;20191;-76
2022/11/02 18:05:36;;;;;;;11.13;2.42;;;16.80;70.00;;;;;;4830983;29;20077;-75
2022/11/02 18:08:04;;;;;;;11.93;2.03;;;16.80;69.00;;;;;;4829046;29;20047;-74
2022/11/02 18:10:42;;;;;;;10.30;2.30;;;16.80;68.20;;;;;;4831673;29;20050;-73
2022/11/02 18:13:12;;;;;;;9.82;2.22;;;16.80;67.50;;;;;;4831161;29;20069;-74
2022/11/02 18:15:38;;;;;;;13.35;3.33;;;16.80;67.20;;;;;;4831553;29;20069;-74
2022/11/02 18:18:03;;;;;;;12.63;2.70;;;16.70;66.90;;;;;;4831611;29;20133;-73
2022/11/02 18:20:30;;;;;;;4.43;1.50;;;16.70;66.50;;;;;;4831578;29;20055;-73
2022/11/02 18:22:57;;;;;;;10.48;2.08;;;16.70;66.50;;;;;;4829334;29;20085;-73
2022/11/02 18:25:25;;;;;;;8.32;2.35;;;16.70;66.50;;;;;;4812822;29;20046;-73
2022/11/02 18:27:51;;;;;;;16.35;2.55;;;16.80;66.80;;;;;;4812484;29;20127;-74
2022/11/02 18:30:21;;;;;;;14.07;2.13;;;16.70;67.10;;;;;;4828120;29;20061;-74
2022/11/02 18:32:47;;;;;;;11.20;2.22;;;16.70;67.40;;;;;;4823614;29;20548;-73
2022/11/02 18:35:16;;;;;;;15.60;2.38;;;16.70;67.80;;;;;;4828396;29;20106;-74
2022/11/02 18:37:42;;;;;;;8.30;1.83;;;16.70;67.90;;;;;;4827102;29;20090;-74
2022/11/02 18:40:11;;;;;;;22.02;3.78;;;16.80;68.10;;;;;;4828506;29;20123;-75
2022/11/02 18:42:38;;;;;;;6.53;1.70;;;16.80;68.30;;;;;;4828067;29;20054;-76